Weather at Chicago O'Hare International Airport

Public forecast

Using degrees Fahrenheit for public forecast. Weather courtesy of forecast.io.

Current aviation weather report (METAR) for Chicago O'Hare International Airport

Retrieved 2021/04/11 09:51 UTC (16 minutes ago):

KORD 110951Z 17003KT 10SM SCT018 BKN023 07/05 A2930 RMK AO2 SLP921 T00720050

Aviation forecast (TAF) for Chicago O'Hare International Airport

Retrieved 2021/04/11 06:30 UTC (4 hours ago):

TAF KORD 110529Z 1106/1212 18006KT P6SM SCT020 SCT060 FM111200 03005KT 5SM -RA BR BKN007 OVC012 FM111700 01006KT P6SM VCSH BKN010 OVC020 FM112200 30009KT 6SM -SHRA OVC015 FM120400 28007KT P6SM SCT008 BKN012